sensor_id;sensor_type;location;lat;lon;timestamp;pressure;altitude;pressure_sealevel;temperature;humidity
76285;BME280;65096;50.998;7.098;2023-04-24T00:00:12;99567.63;;;11.22;54.37
76285;BME280;65096;50.998;7.098;2023-04-24T00:02:40;99560.75;;;11.22;54.22
76285;BME280;65096;50.998;7.098;2023-04-24T00:05:07;99565.13;;;11.17;54.30
76285;BME280;65096;50.998;7.098;2023-04-24T00:07:34;99560.91;;;11.10;54.33
76285;BME280;65096;50.998;7.098;2023-04-24T00:10:01;99564.28;;;11.15;54.55
76285;BME280;65096;50.998;7.098;2023-04-24T00:12:29;99564.25;;;11.17;54.02
76285;BME280;65096;50.998;7.098;2023-04-24T00:14:55;99557.34;;;11.19;54.78
76285;BME280;65096;50.998;7.098;2023-04-24T00:17:22;99556.53;;;11.15;54.63
76285;BME280;65096;50.998;7.098;2023-04-24T00:19:49;99552.38;;;11.05;54.36
76285;BME280;65096;50.998;7.098;2023-04-24T00:22:17;99555.78;;;11.07;55.08
76285;BME280;65096;50.998;7.098;2023-04-24T00:24:46;99552.25;;;11.14;54.72
76285;BME280;65096;50.998;7.098;2023-04-24T00:27:12;99550.59;;;11.10;54.80
76285;BME280;65096;50.998;7.098;2023-04-24T00:29:40;99553.22;;;11.07;55.00
76285;BME280;65096;50.998;7.098;2023-04-24T00:32:07;99551.38;;;11.15;54.20
76285;BME280;65096;50.998;7.098;2023-04-24T00:34:34;99550.50;;;11.15;54.50
76285;BME280;65096;50.998;7.098;2023-04-24T00:37:00;99554.09;;;11.06;54.91
76285;BME280;65096;50.998;7.098;2023-04-24T00:39:27;99548.06;;;11.06;54.88
76285;BME280;65096;50.998;7.098;2023-04-24T00:41:54;99543.88;;;10.99;54.82
76285;BME280;65096;50.998;7.098;2023-04-24T00:44:21;99540.44;;;11.00;55.25
76285;BME280;65096;50.998;7.098;2023-04-24T00:46:49;99539.59;;;10.98;55.53
76285;BME280;65096;50.998;7.098;2023-04-24T00:49:19;99543.88;;;10.97;55.20
76285;BME280;65096;50.998;7.098;2023-04-24T00:51:47;99543.84;;;11.03;55.14
76285;BME280;65096;50.998;7.098;2023-04-24T00:54:14;99541.22;;;11.05;54.95
76285;BME280;65096;50.998;7.098;2023-04-24T00:56:41;99548.09;;;11.04;54.89
76285;BME280;65096;50.998;7.098;2023-04-24T00:59:08;99545.59;;;11.00;55.54
76285;BME280;65096;50.998;7.098;2023-04-24T01:01:35;99541.31;;;10.97;55.60
76285;BME280;65096;50.998;7.098;2023-04-24T01:04:04;99543.03;;;10.98;55.98
76285;BME280;65096;50.998;7.098;2023-04-24T01:06:32;99541.25;;;11.00;55.06
76285;BME280;65096;50.998;7.098;2023-04-24T01:09:00;99538.75;;;10.96;55.79
76285;BME280;65096;50.998;7.098;2023-04-24T01:11:28;99545.56;;;11.01;55.52
76285;BME280;65096;50.998;7.098;2023-04-24T01:13:56;99557.84;;;10.84;56.32
76285;BME280;65096;50.998;7.098;2023-04-24T01:16:24;99550.88;;;10.89;55.29
76285;BME280;65096;50.998;7.098;2023-04-24T01:18:51;99544.03;;;10.88;55.21
76285;BME280;65096;50.998;7.098;2023-04-24T01:21:20;99542.34;;;10.87;54.88
76285;BME280;65096;50.998;7.098;2023-04-24T01:23:49;99546.75;;;10.79;54.49
76285;BME280;65096;50.998;7.098;2023-04-24T01:26:17;99547.53;;;10.81;53.71
76285;BME280;65096;50.998;7.098;2023-04-24T01:28:45;99539.03;;;10.75;52.47
76285;BME280;65096;50.998;7.098;2023-04-24T01:31:12;99554.56;;;10.70;53.39
76285;BME280;65096;50.998;7.098;2023-04-24T01:33:39;99552.84;;;10.72;52.88
76285;BME280;65096;50.998;7.098;2023-04-24T01:36:06;99555.63;;;10.54;53.28
76285;BME280;65096;50.998;7.098;2023-04-24T01:38:32;99565.91;;;10.55;53.42
76285;BME280;65096;50.998;7.098;2023-04-24T01:41:01;99561.84;;;10.36;53.00
76285;BME280;65096;50.998;7.098;2023-04-24T01:43:28;99575.56;;;10.40;52.94
76285;BME280;65096;50.998;7.098;2023-04-24T01:45:55;99573.81;;;10.42;52.90
76285;BME280;65096;50.998;7.098;2023-04-24T01:48:22;99574.72;;;10.38;52.39
76285;BME280;65096;50.998;7.098;2023-04-24T01:50:48;99573.00;;;10.38;52.12
76285;BME280;65096;50.998;7.098;2023-04-24T01:53:15;99582.38;;;10.47;51.00
76285;BME280;65096;50.998;7.098;2023-04-24T01:55:42;99573.00;;;10.37;51.39
76285;BME280;65096;50.998;7.098;2023-04-24T01:58:10;99578.03;;;10.47;49.51
76285;BME280;65096;50.998;7.098;2023-04-24T02:00:36;99566.28;;;10.22;50.51
76285;BME280;65096;50.998;7.098;2023-04-24T02:03:03;99575.84;;;10.11;51.55
76285;BME280;65096;50.998;7.098;2023-04-24T02:05:30;99562.06;;;10.14;50.11
76285;BME280;65096;50.998;7.098;2023-04-24T02:07:56;99573.19;;;10.16;50.64
76285;BME280;65096;50.998;7.098;2023-04-24T02:10:23;99580.13;;;10.09;50.85
76285;BME280;65096;50.998;7.098;2023-04-24T02:12:50;99571.53;;;10.12;50.67
76285;BME280;65096;50.998;7.098;2023-04-24T02:15:18;99580.22;;;10.00;51.00
76285;BME280;65096;50.998;7.098;2023-04-24T02:17:45;99575.13;;;9.97;50.94
76285;BME280;65096;50.998;7.098;2023-04-24T02:20:13;99566.72;;;9.74;52.04
76285;BME280;65096;50.998;7.098;2023-04-24T02:22:40;99595.03;;;9.74;52.17
76285;BME280;65096;50.998;7.098;2023-04-24T02:25:07;99594.31;;;9.60;52.45
76285;BME280;65096;50.998;7.098;2023-04-24T02:27:34;99590.69;;;9.81;51.99
76285;BME280;65096;50.998;7.098;2023-04-24T02:30:01;99603.56;;;9.82;51.89
76285;BME280;65096;50.998;7.098;2023-04-24T02:32:29;99597.56;;;9.80;51.70
76285;BME280;65096;50.998;7.098;2023-04-24T02:34:56;99597.53;;;9.86;51.58
76285;BME280;65096;50.998;7.098;2023-04-24T02:37:23;99588.31;;;9.57;52.07
76285;BME280;65096;50.998;7.098;2023-04-24T02:39:49;99598.63;;;9.57;52.55
76285;BME280;65096;50.998;7.098;2023-04-24T02:42:16;99601.97;;;9.65;52.31
76285;BME280;65096;50.998;7.098;2023-04-24T02:44:43;99612.41;;;9.50;52.91
76285;BME280;65096;50.998;7.098;2023-04-24T02:47:09;99615.94;;;9.35;53.58
76285;BME280;65096;50.998;7.098;2023-04-24T02:49:37;99610.69;;;9.46;52.95
76285;BME280;65096;50.998;7.098;2023-04-24T02:52:04;99614.16;;;9.43;52.96
76285;BME280;65096;50.998;7.098;2023-04-24T02:54:30;99611.50;;;9.54;52.42
76285;BME280;65096;50.998;7.098;2023-04-24T02:56:57;99612.38;;;9.54;52.66
76285;BME280;65096;50.998;7.098;2023-04-24T02:59:24;99613.19;;;9.59;52.41
76285;BME280;65096;50.998;7.098;2023-04-24T03:01:52;99617.53;;;9.48;53.25
76285;BME280;65096;50.998;7.098;2023-04-24T03:04:19;99631.22;;;9.55;52.68
76285;BME280;65096;50.998;7.098;2023-04-24T03:06:47;99636.41;;;9.49;52.76
76285;BME280;65096;50.998;7.098;2023-04-24T03:09:14;99629.59;;;9.45;53.21
76285;BME280;65096;50.998;7.098;2023-04-24T03:11:43;99626.06;;;9.58;52.57
76285;BME280;65096;50.998;7.098;2023-04-24T03:14:10;99623.66;;;9.34;52.85
76285;BME280;65096;50.998;7.098;2023-04-24T03:16:37;99633.88;;;9.44;53.43
76285;BME280;65096;50.998;7.098;2023-04-24T03:19:03;99633.00;;;9.44;52.86
76285;BME280;65096;50.998;7.098;2023-04-24T03:21:30;99637.31;;;9.43;53.22
76285;BME280;65096;50.998;7.098;2023-04-24T03:23:58;99619.34;;;9.34;53.17
76285;BME280;65096;50.998;7.098;2023-04-24T03:26:25;99636.59;;;9.17;53.99
76285;BME280;65096;50.998;7.098;2023-04-24T03:28:51;99639.22;;;9.11;53.60
76285;BME280;65096;50.998;7.098;2023-04-24T03:31:18;99639.13;;;9.26;53.08
76285;BME280;65096;50.998;7.098;2023-04-24T03:33:46;99645.97;;;9.29;53.54
76285;BME280;65096;50.998;7.098;2023-04-24T03:36:13;99646.91;;;9.15;54.13
76285;BME280;65096;50.998;7.098;2023-04-24T03:38:39;99650.31;;;9.22;53.86
76285;BME280;65096;50.998;7.098;2023-04-24T03:41:07;99654.50;;;9.32;53.29
76285;BME280;65096;50.998;7.098;2023-04-24T03:43:34;99645.06;;;9.37;53.55
76285;BME280;65096;50.998;7.098;2023-04-24T03:46:01;99648.53;;;9.32;53.41
76285;BME280;65096;50.998;7.098;2023-04-24T03:48:28;99647.69;;;9.27;53.31
76285;BME280;65096;50.998;7.098;2023-04-24T03:50:54;99645.97;;;9.29;52.69
76285;BME280;65096;50.998;7.098;2023-04-24T03:53:21;99634.03;;;9.18;53.17
76285;BME280;65096;50.998;7.098;2023-04-24T03:55:48;99648.53;;;9.30;53.14
76285;BME280;65096;50.998;7.098;2023-04-24T03:58:16;99647.75;;;9.17;53.16
76285;BME280;65096;50.998;7.098;2023-04-24T04:00:43;99642.56;;;9.25;53.26
76285;BME280;65096;50.998;7.098;2023-04-24T04:03:11;99650.31;;;9.19;53.26
76285;BME280;65096;50.998;7.098;2023-04-24T04:05:39;99657.09;;;9.31;52.82
76285;BME280;65096;50.998;7.098;2023-04-24T04:08:05;99653.69;;;9.30;52.82
76285;BME280;65096;50.998;7.098;2023-04-24T04:10:32;99658.00;;;9.22;53.22
76285;BME280;65096;50.998;7.098;2023-04-24T04:12:59;99653.69;;;9.23;52.77
76285;BME280;65096;50.998;7.098;2023-04-24T04:15:27;99652.88;;;9.22;52.54
76285;BME280;65096;50.998;7.098;2023-04-24T04:17:53;99648.59;;;9.18;52.87
76285;BME280;65096;50.998;7.098;2023-04-24T04:20:20;99651.97;;;9.26;53.04
76285;BME280;65096;50.998;7.098;2023-04-24T04:22:47;99658.91;;;9.15;53.05
76285;BME280;65096;50.998;7.098;2023-04-24T04:25:13;99661.44;;;9.21;52.91
76285;BME280;65096;50.998;7.098;2023-04-24T04:27:40;99662.31;;;9.17;52.89
76285;BME280;65096;50.998;7.098;2023-04-24T04:30:08;99666.59;;;9.19;52.86
76285;BME280;65096;50.998;7.098;2023-04-24T04:32:36;99670.06;;;9.12;53.37
76285;BME280;65096;50.998;7.098;2023-04-24T04:35:04;99654.63;;;9.14;53.16
76285;BME280;65096;50.998;7.098;2023-04-24T04:37:31;99661.44;;;9.21;53.27
76285;BME280;65096;50.998;7.098;2023-04-24T04:39:58;99670.91;;;9.17;53.13
76285;BME280;65096;50.998;7.098;2023-04-24T04:42:25;99661.47;;;9.13;53.16
76285;BME280;65096;50.998;7.098;2023-04-24T04:44:53;99671.75;;;9.16;53.61
76285;BME280;65096;50.998;7.098;2023-04-24T04:47:21;99676.03;;;9.17;53.66
76285;BME280;65096;50.998;7.098;2023-04-24T04:49:50;99677.75;;;9.15;53.26
76285;BME280;65096;50.998;7.098;2023-04-24T04:52:17;99676.03;;;9.14;53.16
76285;BME280;65096;50.998;7.098;2023-04-24T04:54:44;99677.78;;;9.11;53.24
76285;BME280;65096;50.998;7.098;2023-04-24T04:57:11;99670.03;;;9.17;53.40
76285;BME280;65096;50.998;7.098;2023-04-24T04:59:38;99674.34;;;9.07;53.94
76285;BME280;65096;50.998;7.098;2023-04-24T05:02:06;99670.91;;;9.02;53.64
76285;BME280;65096;50.998;7.098;2023-04-24T05:04:33;99676.06;;;9.05;53.47
76285;BME280;65096;50.998;7.098;2023-04-24T05:07:01;99684.59;;;9.19;53.63
76285;BME280;65096;50.998;7.098;2023-04-24T05:09:28;99675.16;;;9.18;53.58
76285;BME280;65096;50.998;7.098;2023-04-24T05:11:55;99666.66;;;9.03;54.50
76285;BME280;65096;50.998;7.098;2023-04-24T05:14:21;99680.34;;;9.09;54.08
76285;BME280;65096;50.998;7.098;2023-04-24T05:16:48;99675.19;;;9.09;54.24
76285;BME280;65096;50.998;7.098;2023-04-24T05:19:15;99678.63;;;9.07;54.13
76285;BME280;65096;50.998;7.098;2023-04-24T05:21:41;99678.59;;;9.10;54.02
76285;BME280;65096;50.998;7.098;2023-04-24T05:24:09;99686.34;;;9.16;53.78
76285;BME280;65096;50.998;7.098;2023-04-24T05:26:36;99688.03;;;9.18;53.63
76285;BME280;65096;50.998;7.098;2023-04-24T05:29:03;99685.44;;;9.23;53.63
76285;BME280;65096;50.998;7.098;2023-04-24T05:31:30;99688.06;;;9.15;54.13
76285;BME280;65096;50.998;7.098;2023-04-24T05:33:57;99690.59;;;9.18;54.15
76285;BME280;65096;50.998;7.098;2023-04-24T05:36:23;99699.19;;;9.16;54.08
76285;BME280;65096;50.998;7.098;2023-04-24T05:38:50;99691.47;;;9.11;53.99
76285;BME280;65096;50.998;7.098;2023-04-24T05:41:18;99708.63;;;9.15;54.22
76285;BME280;65096;50.998;7.098;2023-04-24T05:43:45;99700.06;;;9.12;54.40
76285;BME280;65096;50.998;7.098;2023-04-24T05:46:11;99705.19;;;9.15;54.45
76285;BME280;65096;50.998;7.098;2023-04-24T05:48:39;99700.06;;;9.04;55.17
76285;BME280;65096;50.998;7.098;2023-04-24T05:51:06;99720.66;;;8.92;56.41
76285;BME280;65096;50.998;7.098;2023-04-24T05:53:33;99710.38;;;8.88;56.93
76285;BME280;65096;50.998;7.098;2023-04-24T05:55:59;99703.56;;;8.79;56.51
76285;BME280;65096;50.998;7.098;2023-04-24T05:58:27;99717.19;;;9.08;55.74
76285;BME280;65096;50.998;7.098;2023-04-24T06:00:54;99706.91;;;9.08;55.73
76285;BME280;65096;50.998;7.098;2023-04-24T06:03:21;99711.19;;;9.06;56.60
76285;BME280;65096;50.998;7.098;2023-04-24T06:05:49;99708.63;;;9.09;56.18
76285;BME280;65096;50.998;7.098;2023-04-24T06:08:16;99715.50;;;9.10;56.51
76285;BME280;65096;50.998;7.098;2023-04-24T06:10:43;99709.47;;;9.11;56.44
76285;BME280;65096;50.998;7.098;2023-04-24T06:13:09;99712.94;;;9.10;56.57
76285;BME280;65096;50.998;7.098;2023-04-24T06:15:37;99718.91;;;9.09;57.46
76285;BME280;65096;50.998;7.098;2023-04-24T06:18:04;99718.06;;;9.10;57.52
76285;BME280;65096;50.998;7.098;2023-04-24T06:20:31;99722.31;;;9.08;57.24
76285;BME280;65096;50.998;7.098;2023-04-24T06:22:57;99724.88;;;9.10;57.37
76285;BME280;65096;50.998;7.098;2023-04-24T06:25:25;99726.59;;;9.06;57.79
76285;BME280;65096;50.998;7.098;2023-04-24T06:27:52;99721.47;;;9.05;58.05
76285;BME280;65096;50.998;7.098;2023-04-24T06:30:19;99719.81;;;8.93;59.00
76285;BME280;65096;50.998;7.098;2023-04-24T06:32:48;99718.16;;;8.77;59.78
76285;BME280;65096;50.998;7.098;2023-04-24T06:35:14;99705.34;;;8.55;59.82
76285;BME280;65096;50.998;7.098;2023-04-24T06:37:42;99724.13;;;8.78;59.26
76285;BME280;65096;50.998;7.098;2023-04-24T06:40:09;99725.84;;;8.80;58.71
76285;BME280;65096;50.998;7.098;2023-04-24T06:42:36;99727.53;;;8.81;59.46
76285;BME280;65096;50.998;7.098;2023-04-24T06:45:04;99723.28;;;8.79;61.25
76285;BME280;65096;50.998;7.098;2023-04-24T06:47:31;99729.25;;;8.76;60.44
76285;BME280;65096;50.998;7.098;2023-04-24T06:49:59;99720.72;;;8.64;60.60
76285;BME280;65096;50.998;7.098;2023-04-24T06:52:25;99729.28;;;8.70;60.26
76285;BME280;65096;50.998;7.098;2023-04-24T06:54:52;99743.00;;;8.69;59.91
76285;BME280;65096;50.998;7.098;2023-04-24T06:57:25;99735.28;;;8.62;60.94
76285;BME280;65096;50.998;7.098;2023-04-24T06:59:52;99751.59;;;8.56;59.73
76285;BME280;65096;50.998;7.098;2023-04-24T07:02:19;99746.44;;;8.44;62.21
76285;BME280;65096;50.998;7.098;2023-04-24T07:04:46;99761.00;;;8.18;61.79
76285;BME280;65096;50.998;7.098;2023-04-24T07:07:14;99757.56;;;8.22;61.81
76285;BME280;65096;50.998;7.098;2023-04-24T07:09:42;99749.84;;;8.28;61.47
76285;BME280;65096;50.998;7.098;2023-04-24T07:12:09;99744.75;;;8.34;61.18
76285;BME280;65096;50.998;7.098;2023-04-24T07:14:36;99733.63;;;8.23;61.48
76285;BME280;65096;50.998;7.098;2023-04-24T07:17:04;99751.59;;;8.25;63.86
76285;BME280;65096;50.998;7.098;2023-04-24T07:19:31;99760.13;;;8.30;62.23
76285;BME280;65096;50.998;7.098;2023-04-24T07:21:59;99746.47;;;8.28;62.65
76285;BME280;65096;50.998;7.098;2023-04-24T07:24:27;99751.59;;;8.31;62.09
76285;BME280;65096;50.998;7.098;2023-04-24T07:26:54;99745.59;;;8.27;63.28
76285;BME280;65096;50.998;7.098;2023-04-24T07:29:22;99757.56;;;8.24;63.32
76285;BME280;65096;50.998;7.098;2023-04-24T07:31:48;99745.59;;;8.27;63.28
76285;BME280;65096;50.998;7.098;2023-04-24T07:34:15;99763.56;;;8.21;63.09
76285;BME280;65096;50.998;7.098;2023-04-24T07:36:42;99763.56;;;8.24;63.56
76285;BME280;65096;50.998;7.098;2023-04-24T07:39:08;99777.28;;;8.26;63.02
76285;BME280;65096;50.998;7.098;2023-04-24T07:41:36;99776.41;;;8.18;63.15
76285;BME280;65096;50.998;7.098;2023-04-24T07:44:03;99774.69;;;8.10;64.10
76285;BME280;65096;50.998;7.098;2023-04-24T07:46:30;99791.72;;;7.82;64.96
76285;BME280;65096;50.998;7.098;2023-04-24T07:48:57;99805.44;;;7.84;65.59
76285;BME280;65096;50.998;7.098;2023-04-24T07:51:24;99804.59;;;7.94;64.55
76285;BME280;65096;50.998;7.098;2023-04-24T07:53:52;99810.56;;;7.86;64.67
76285;BME280;65096;50.998;7.098;2023-04-24T07:56:20;99811.31;;;7.60;64.99
76285;BME280;65096;50.998;7.098;2023-04-24T07:58:48;99816.44;;;7.59;65.01
76285;BME280;65096;50.998;7.098;2023-04-24T08:01:14;99819.91;;;7.68;63.96
76285;BME280;65096;50.998;7.098;2023-04-24T08:03:41;99821.50;;;7.51;64.71
76285;BME280;65096;50.998;7.098;2023-04-24T08:06:08;99827.47;;;7.43;65.21
76285;BME280;65096;50.998;7.098;2023-04-24T08:08:34;99827.44;;;7.37;65.03
76285;BME280;65096;50.998;7.098;2023-04-24T08:11:01;99835.97;;;7.37;64.45
76285;BME280;65096;50.998;7.098;2023-04-24T08:13:28;99839.44;;;7.44;64.20
76285;BME280;65096;50.998;7.098;2023-04-24T08:15:56;99846.25;;;7.40;64.17
76285;BME280;65096;50.998;7.098;2023-04-24T08:18:23;99851.34;;;7.34;64.55
76285;BME280;65096;50.998;7.098;2023-04-24T08:20:50;99855.63;;;7.37;65.37
76285;BME280;65096;50.998;7.098;2023-04-24T08:23:16;99864.19;;;7.36;64.66
76285;BME280;65096;50.998;7.098;2023-04-24T08:25:43;99875.28;;;7.32;65.05
76285;BME280;65096;50.998;7.098;2023-04-24T08:28:10;99877.00;;;7.31;64.70
76285;BME280;65096;50.998;7.098;2023-04-24T08:30:37;99872.75;;;7.38;62.89
76285;BME280;65096;50.998;7.098;2023-04-24T08:33:05;99881.09;;;7.08;64.76
76285;BME280;65096;50.998;7.098;2023-04-24T08:35:32;99890.41;;;6.96;65.49
76285;BME280;65096;50.998;7.098;2023-04-24T08:37:59;99892.19;;;7.03;65.37
76285;BME280;65096;50.998;7.098;2023-04-24T08:40:27;99879.25;;;6.91;66.08
76285;BME280;65096;50.998;7.098;2023-04-24T08:42:55;99893.81;;;6.93;66.05
76285;BME280;65096;50.998;7.098;2023-04-24T08:45:23;99884.47;;;7.00;65.62
76285;BME280;65096;50.998;7.098;2023-04-24T08:47:52;99884.44;;;6.97;65.83
76285;BME280;65096;50.998;7.098;2023-04-24T08:50:20;99886.97;;;6.94;65.61
76285;BME280;65096;50.998;7.098;2023-04-24T08:52:47;99892.94;;;6.91;65.35
76285;BME280;65096;50.998;7.098;2023-04-24T08:55:16;99894.63;;;6.92;65.48
76285;BME280;65096;50.998;7.098;2023-04-24T08:57:44;99893.84;;;6.98;65.12
76285;BME280;65096;50.998;7.098;2023-04-24T09:00:12;99892.91;;;6.87;65.27
76285;BME280;65096;50.998;7.098;2023-04-24T09:02:41;99909.94;;;6.83;65.80
76285;BME280;65096;50.998;7.098;2023-04-24T09:05:09;99915.69;;;6.57;67.27
76285;BME280;65096;50.998;7.098;2023-04-24T09:07:39;99924.31;;;6.66;67.55
76285;BME280;65096;50.998;7.098;2023-04-24T09:10:09;99911.41;;;6.59;67.43
76285;BME280;65096;50.998;7.098;2023-04-24T09:12:36;99927.88;;;6.82;66.77
76285;BME280;65096;50.998;7.098;2023-04-24T09:15:03;99929.94;;;6.33;68.95
76285;BME280;65096;50.998;7.098;2023-04-24T09:17:31;99925.81;;;6.48;67.17
76285;BME280;65096;50.998;7.098;2023-04-24T09:19:57;99948.94;;;6.54;68.34
76285;BME280;65096;50.998;7.098;2023-04-24T09:22:24;99954.16;;;6.61;68.99
76285;BME280;65096;50.998;7.098;2023-04-24T09:25:02;99960.97;;;6.59;68.55
76285;BME280;65096;50.998;7.098;2023-04-24T09:27:31;99967.03;;;6.67;68.04
76285;BME280;65096;50.998;7.098;2023-04-24T09:29:58;99975.59;;;6.71;67.77
76285;BME280;65096;50.998;7.098;2023-04-24T09:32:25;99973.00;;;6.68;68.76
76285;BME280;65096;50.998;7.098;2023-04-24T09:35:06;99989.28;;;6.73;68.68
76285;BME280;65096;50.998;7.098;2023-04-24T09:37:35;99988.47;;;6.77;68.07
76285;BME280;65096;50.998;7.098;2023-04-24T09:40:11;99989.34;;;6.79;68.76
76285;BME280;65096;50.998;7.098;2023-04-24T09:42:38;99997.78;;;6.70;68.19
76285;BME280;65096;50.998;7.098;2023-04-24T09:45:08;100000.41;;;6.76;68.35
76285;BME280;65096;50.998;7.098;2023-04-24T09:47:36;100013.34;;;6.85;68.10
76285;BME280;65096;50.998;7.098;2023-04-24T09:50:14;100022.69;;;6.82;68.95
76285;BME280;65096;50.998;7.098;2023-04-24T09:52:42;100023.59;;;6.85;68.85
76285;BME280;65096;50.998;7.098;2023-04-24T09:55:17;100030.34;;;6.79;70.21
76285;BME280;65096;50.998;7.098;2023-04-24T09:57:48;100035.44;;;6.76;69.45
76285;BME280;65096;50.998;7.098;2023-04-24T10:00:18;100036.28;;;6.78;68.72
76285;BME280;65096;50.998;7.098;2023-04-24T10:02:49;100031.31;;;6.91;68.60
76285;BME280;65096;50.998;7.098;2023-04-24T10:05:16;100037.38;;;6.98;68.85
76285;BME280;65096;50.998;7.098;2023-04-24T10:07:43;100040.81;;;7.00;68.86
76285;BME280;65096;50.998;7.098;2023-04-24T10:10:11;100046.94;;;7.14;67.65
76285;BME280;65096;50.998;7.098;2023-04-24T10:12:39;100051.25;;;7.21;68.26
76285;BME280;65096;50.998;7.098;2023-04-24T10:15:07;100049.56;;;7.20;68.82
76285;BME280;65096;50.998;7.098;2023-04-24T10:17:38;100051.16;;;7.07;68.91
76285;BME280;65096;50.998;7.098;2023-04-24T10:20:06;100059.78;;;7.17;68.86
76285;BME280;65096;50.998;7.098;2023-04-24T10:22:33;100059.75;;;7.14;69.59
76285;BME280;65096;50.998;7.098;2023-04-24T10:25:02;100067.53;;;7.23;69.33
76285;BME280;65096;50.998;7.098;2023-04-24T10:27:31;100064.19;;;7.31;68.36
76285;BME280;65096;50.998;7.098;2023-04-24T10:30:00;100073.56;;;7.28;70.03
76285;BME280;65096;50.998;7.098;2023-04-24T10:32:28;100075.34;;;7.36;68.74
76285;BME280;65096;50.998;7.098;2023-04-24T10:34:55;100075.41;;;7.41;69.16
76285;BME280;65096;50.998;7.098;2023-04-24T10:37:23;100077.06;;;7.36;70.62
76285;BME280;65096;50.998;7.098;2023-04-24T10:39:50;100082.19;;;7.37;69.82
76285;BME280;65096;50.998;7.098;2023-04-24T10:42:20;100047.03;;;7.26;70.15
76285;BME280;65096;50.998;7.098;2023-04-24T10:44:48;100077.13;;;7.46;69.74
76285;BME280;65096;50.998;7.098;2023-04-24T10:47:18;100076.38;;;7.55;69.35
76285;BME280;65096;50.998;7.098;2023-04-24T10:49:45;100083.31;;;7.66;69.02
76285;BME280;65096;50.998;7.098;2023-04-24T10:52:12;100085.03;;;7.70;68.79
76285;BME280;65096;50.998;7.098;2023-04-24T10:54:44;100094.44;;;7.67;69.57
76285;BME280;65096;50.998;7.098;2023-04-24T10:57:26;100092.88;;;7.81;69.12
76285;BME280;65096;50.998;7.098;2023-04-24T11:00:18;100093.69;;;7.80;68.53
76285;BME280;65096;50.998;7.098;2023-04-24T11:02:47;100110.84;;;7.81;68.45
76285;BME280;65096;50.998;7.098;2023-04-24T11:05:16;100099.66;;;7.74;68.76
76285;BME280;65096;50.998;7.098;2023-04-24T11:08:11;100113.44;;;7.86;68.42
76285;BME280;65096;50.998;7.098;2023-04-24T11:10:39;100121.09;;;7.78;69.03
76285;BME280;65096;50.998;7.098;2023-04-24T11:13:06;100121.09;;;7.81;68.13
76285;BME280;65096;50.998;7.098;2023-04-24T11:15:34;100128.00;;;7.88;68.10
76285;BME280;65096;50.998;7.098;2023-04-24T11:18:02;100131.41;;;7.87;68.56
76285;BME280;65096;50.998;7.098;2023-04-24T11:20:29;100127.97;;;7.84;68.38
76285;BME280;65096;50.998;7.098;2023-04-24T11:23:03;100144.25;;;7.87;68.66
76285;BME280;65096;50.998;7.098;2023-04-24T11:25:31;100144.22;;;7.84;68.16
76285;BME280;65096;50.998;7.098;2023-04-24T11:28:03;100140.00;;;7.91;68.08
76285;BME280;65096;50.998;7.098;2023-04-24T11:30:31;100135.75;;;7.94;67.41
76285;BME280;65096;50.998;7.098;2023-04-24T11:33:04;100136.47;;;7.78;69.24
76285;BME280;65096;50.998;7.098;2023-04-24T11:35:35;100140.91;;;7.96;68.17
76285;BME280;65096;50.998;7.098;2023-04-24T11:38:06;100131.56;;;8.07;68.52
76285;BME280;65096;50.998;7.098;2023-04-24T11:40:34;100141.88;;;8.13;68.42
76285;BME280;65096;50.998;7.098;2023-04-24T11:43:00;100136.75;;;8.14;69.57
76285;BME280;65096;50.998;7.098;2023-04-24T11:45:28;100147.94;;;8.24;68.75
76285;BME280;65096;50.998;7.098;2023-04-24T11:47:56;100146.28;;;8.33;68.25
76285;BME280;65096;50.998;7.098;2023-04-24T11:50:26;100142.06;;;8.44;68.43
76285;BME280;65096;50.998;7.098;2023-04-24T11:52:54;100153.19;;;8.37;68.15
76285;BME280;65096;50.998;7.098;2023-04-24T11:55:25;100143.84;;;8.48;67.47
76285;BME280;65096;50.998;7.098;2023-04-24T11:57:54;100148.97;;;8.50;67.57
76285;BME280;65096;50.998;7.098;2023-04-24T12:00:23;100148.97;;;8.47;68.06
76285;BME280;65096;50.998;7.098;2023-04-24T12:02:50;100145.63;;;8.61;67.04
76285;BME280;65096;50.998;7.098;2023-04-24T12:05:21;100155.84;;;8.55;67.74
76285;BME280;65096;50.998;7.098;2023-04-24T12:07:49;100143.06;;;8.66;67.02
76285;BME280;65096;50.998;7.098;2023-04-24T12:10:20;100161.94;;;8.66;67.48
76285;BME280;65096;50.998;7.098;2023-04-24T12:12:47;100159.38;;;8.72;67.66
76285;BME280;65096;50.998;7.098;2023-04-24T12:15:16;100161.16;;;8.85;67.14
76285;BME280;65096;50.998;7.098;2023-04-24T12:17:43;100165.44;;;8.89;67.63
76285;BME280;65096;50.998;7.098;2023-04-24T12:20:11;100167.16;;;8.86;67.74
76285;BME280;65096;50.998;7.098;2023-04-24T12:22:45;100169.75;;;8.90;65.80
76285;BME280;65096;50.998;7.098;2023-04-24T12:25:15;100168.91;;;8.90;66.41
76285;BME280;65096;50.998;7.098;2023-04-24T12:27:43;100174.91;;;8.90;66.87
76285;BME280;65096;50.998;7.098;2023-04-24T12:30:12;100170.59;;;8.88;66.70
76285;BME280;65096;50.998;7.098;2023-04-24T12:32:41;100180.00;;;8.87;66.20
76285;BME280;65096;50.998;7.098;2023-04-24T12:35:09;100180.94;;;9.00;65.77
76285;BME280;65096;50.998;7.098;2023-04-24T12:37:35;100186.09;;;9.03;66.36
76285;BME280;65096;50.998;7.098;2023-04-24T12:40:07;100190.38;;;9.07;66.00
76285;BME280;65096;50.998;7.098;2023-04-24T12:42:41;100186.94;;;9.03;67.16
76285;BME280;65096;50.998;7.098;2023-04-24T12:45:09;100189.50;;;9.02;65.80
76285;BME280;65096;50.998;7.098;2023-04-24T12:47:38;100193.75;;;8.95;66.20
76285;BME280;65096;50.998;7.098;2023-04-24T12:50:06;100196.31;;;8.89;65.15
76285;BME280;65096;50.998;7.098;2023-04-24T12:52:32;100191.22;;;9.00;63.99
76285;BME280;65096;50.998;7.098;2023-04-24T12:55:00;100198.06;;;8.96;64.44
76285;BME280;65096;50.998;7.098;2023-04-24T12:57:29;100186.94;;;9.06;62.27
76285;BME280;65096;50.998;7.098;2023-04-24T12:59:58;100196.47;;;9.19;61.45
76285;BME280;65096;50.998;7.098;2023-04-24T13:02:26;100180.19;;;9.17;63.52
76285;BME280;65096;50.998;7.098;2023-04-24T13:04:54;100197.34;;;9.25;61.34
76285;BME280;65096;50.998;7.098;2023-04-24T13:07:21;100181.03;;;9.18;60.50
76285;BME280;65096;50.998;7.098;2023-04-24T13:09:49;100201.66;;;9.24;61.69